createdAt,value
2022-10-25T00:02:20.452Z,10.20
2022-10-25T00:04:47.966Z,8.48
2022-10-25T00:07:15.441Z,8.50
2022-10-25T00:09:42.965Z,10.98
2022-10-25T00:12:10.307Z,10.13
2022-10-25T00:14:37.832Z,13.13
2022-10-25T00:17:05.223Z,12.70
2022-10-25T00:19:32.585Z,13.57
2022-10-25T00:21:59.974Z,14.00
2022-10-25T00:24:27.461Z,13.15
2022-10-25T00:26:54.888Z,13.73
2022-10-25T00:29:25.146Z,15.18
2022-10-25T00:31:52.479Z,15.20
2022-10-25T00:34:19.806Z,16.73
2022-10-25T00:36:47.158Z,16.13
2022-10-25T00:39:14.524Z,16.20
2022-10-25T00:41:41.937Z,16.58
2022-10-25T00:44:40.014Z,17.15
2022-10-25T00:47:26.664Z,16.17
2022-10-25T00:50:02.777Z,16.60
2022-10-25T00:52:33.486Z,15.52
2022-10-25T00:55:02.067Z,13.55
2022-10-25T00:58:12.764Z,14.52
2022-10-25T01:00:40.379Z,16.38
2022-10-25T01:03:07.996Z,14.75
2022-10-25T01:05:36.011Z,16.75
2022-10-25T01:08:05.231Z,16.55
2022-10-25T01:10:32.781Z,16.63
2022-10-25T01:13:03.886Z,17.02
2022-10-25T01:15:45.953Z,16.35
2022-10-25T01:18:20.381Z,15.77
2022-10-25T01:20:47.587Z,16.65
2022-10-25T01:23:42.338Z,15.48
2022-10-25T01:26:37.587Z,17.40
2022-10-25T01:29:43.180Z,14.85
2022-10-25T01:32:23.912Z,14.10
2022-10-25T01:34:59.565Z,13.88
2022-10-25T01:37:40.180Z,15.73
2022-10-25T01:40:23.314Z,15.05
2022-10-25T01:43:04.759Z,15.55
2022-10-25T01:46:04.793Z,16.38
2022-10-25T01:48:42.071Z,15.75
2022-10-25T01:51:12.247Z,18.55
2022-10-25T01:53:51.081Z,15.52
2022-10-25T01:56:41.618Z,15.82
2022-10-25T01:59:36.201Z,15.43
2022-10-25T02:02:13.707Z,14.93
2022-10-25T02:04:56.367Z,15.02
2022-10-25T02:07:51.352Z,14.07
2022-10-25T02:10:54.666Z,16.13
2022-10-25T02:13:37.909Z,15.30
2022-10-25T02:16:13.662Z,14.15
2022-10-25T02:18:45.641Z,15.27
2022-10-25T02:21:15.068Z,15.38
2022-10-25T02:23:43.179Z,14.38
2022-10-25T02:26:11.541Z,13.68
2022-10-25T02:28:41.069Z,14.45
2022-10-25T02:31:12.830Z,14.00
2022-10-25T02:33:40.156Z,13.50
2022-10-25T02:36:19.735Z,14.95
2022-10-25T02:38:48.722Z,14.32
2022-10-25T02:41:17.137Z,14.00
2022-10-25T02:43:44.595Z,14.20
2022-10-25T02:46:16.149Z,13.55
2022-10-25T02:48:43.836Z,13.57
2022-10-25T02:51:12.376Z,12.27
2022-10-25T02:53:40.576Z,14.27
2022-10-25T02:56:09.033Z,13.20
2022-10-25T02:58:38.725Z,12.75
2022-10-25T03:01:07.038Z,12.70
2022-10-25T03:03:35.331Z,12.25
2022-10-25T03:06:02.664Z,11.85
2022-10-25T03:08:30.554Z,12.15
2022-10-25T03:10:58.918Z,12.30
2022-10-25T03:13:26.518Z,11.48
2022-10-25T03:15:53.914Z,10.15
2022-10-25T03:18:22.344Z,10.88
2022-10-25T03:20:50.200Z,10.30
2022-10-25T03:23:18.078Z,11.38
2022-10-25T03:25:45.424Z,10.57
2022-10-25T03:28:12.761Z,10.63
2022-10-25T03:30:43.176Z,10.85
2022-10-25T03:33:10.645Z,10.00
2022-10-25T03:35:37.912Z,11.00
2022-10-25T03:38:05.280Z,11.15
2022-10-25T03:40:32.613Z,10.07
2022-10-25T03:42:59.924Z,9.85
2022-10-25T03:45:27.276Z,11.68
2022-10-25T03:47:54.617Z,9.75
2022-10-25T03:50:22.043Z,10.88
2022-10-25T03:52:49.340Z,9.93
2022-10-25T03:55:17.151Z,9.95
2022-10-25T03:57:44.743Z,9.55
2022-10-25T04:00:13.040Z,9.18
2022-10-25T04:02:40.437Z,9.55
2022-10-25T04:05:08.176Z,10.93
2022-10-25T04:07:35.553Z,10.38
2022-10-25T04:10:03.868Z,9.45
2022-10-25T04:12:31.746Z,9.35
2022-10-25T04:14:59.360Z,10.48
2022-10-25T04:17:26.684Z,9.45
2022-10-25T04:19:53.965Z,10.75
2022-10-25T04:22:21.349Z,12.07
2022-10-25T04:24:48.836Z,10.80
2022-10-25T04:27:16.467Z,8.52
2022-10-25T04:29:43.747Z,11.45
2022-10-25T04:32:11.742Z,11.15
2022-10-25T04:34:39.040Z,13.55
2022-10-25T04:37:06.396Z,9.90
2022-10-25T04:39:33.688Z,9.38
2022-10-25T04:42:01.057Z,9.93
2022-10-25T04:44:28.348Z,10.65
2022-10-25T04:46:55.699Z,11.27
2022-10-25T04:49:23.057Z,9.30
2022-10-25T04:54:18.612Z,8.90
2022-10-25T04:56:45.950Z,9.35
2022-10-25T04:59:13.341Z,8.77
2022-10-25T05:01:40.744Z,8.98
2022-10-25T05:04:08.168Z,8.68
2022-10-25T05:06:35.482Z,9.02
2022-10-25T05:09:04.204Z,8.85
2022-10-25T05:11:32.637Z,9.25
2022-10-25T05:14:00.328Z,10.10
2022-10-25T05:16:27.766Z,9.68
2022-10-25T05:18:55.790Z,10.13
2022-10-25T05:21:30.216Z,10.98
2022-10-25T05:24:01.646Z,8.63
2022-10-25T05:26:30.454Z,9.30
2022-10-25T05:28:58.134Z,8.90
2022-10-25T05:31:30.427Z,9.43
2022-10-25T05:33:59.954Z,8.95
2022-10-25T05:36:32.765Z,9.23
2022-10-25T05:39:01.231Z,9.20
2022-10-25T05:41:30.819Z,10.48
2022-10-25T05:44:00.768Z,9.73
2022-10-25T05:46:28.201Z,9.23
2022-10-25T05:48:55.570Z,9.52
2022-10-25T05:51:33.422Z,7.25
2022-10-25T05:54:04.880Z,6.20
2022-10-25T05:56:33.519Z,6.10
2022-10-25T05:59:09.335Z,5.78
2022-10-25T06:01:42.936Z,4.95
2022-10-25T06:04:11.394Z,3.38
2022-10-25T06:06:40.369Z,2.90
2022-10-25T06:09:08.284Z,2.08
2022-10-25T06:11:36.593Z,1.83
2022-10-25T06:14:05.174Z,1.48
2022-10-25T06:16:32.732Z,2.22
2022-10-25T06:19:00.025Z,1.38
2022-10-25T06:21:29.006Z,1.10
2022-10-25T06:23:57.864Z,1.13
2022-10-25T06:26:29.917Z,1.55
2022-10-25T06:29:00.579Z,1.55
2022-10-25T06:31:29.569Z,1.98
2022-10-25T06:33:58.542Z,1.65
2022-10-25T06:36:27.589Z,1.63
2022-10-25T06:38:55.046Z,1.55
2022-10-25T06:41:24.945Z,1.60
2022-10-25T06:43:52.314Z,2.17
2022-10-25T06:46:28.602Z,1.75
2022-10-25T06:48:57.597Z,2.15
2022-10-25T06:51:26.469Z,2.60
2022-10-25T06:53:55.270Z,1.90
2022-10-25T06:56:22.952Z,1.83
2022-10-25T06:58:50.632Z,3.90
2022-10-25T07:01:19.616Z,3.53
2022-10-25T07:03:47.563Z,4.65
2022-10-25T07:06:21.960Z,5.20
2022-10-25T07:09:01.533Z,5.97
2022-10-25T07:11:32.817Z,7.32
2022-10-25T07:14:01.196Z,5.85
2022-10-25T07:16:29.052Z,6.93
2022-10-25T07:19:00.360Z,7.00
2022-10-25T07:21:29.297Z,5.70
2022-10-25T07:23:56.683Z,6.80
2022-10-25T07:26:27.884Z,6.60
2022-10-25T07:28:57.173Z,5.75
2022-10-25T07:31:30.316Z,6.25
2022-10-25T07:33:59.600Z,4.28
2022-10-25T07:36:27.044Z,6.40
2022-10-25T07:38:54.847Z,4.22
2022-10-25T07:41:22.403Z,3.92
2022-10-25T07:43:49.715Z,5.20
2022-10-25T07:46:17.552Z,4.95
2022-10-25T07:48:44.830Z,4.25
2022-10-25T07:51:14.036Z,3.88
2022-10-25T07:53:41.711Z,5.30
2022-10-25T07:56:20.462Z,4.10
2022-10-25T07:58:51.982Z,4.10
2022-10-25T08:01:22.411Z,3.00
2022-10-25T08:03:50.804Z,3.00
2022-10-25T08:06:18.733Z,2.97
2022-10-25T08:08:46.073Z,3.00
2022-10-25T08:11:13.431Z,2.50
2022-10-25T08:13:40.992Z,2.83
2022-10-25T08:16:08.813Z,2.40
2022-10-25T08:18:36.155Z,2.00
2022-10-25T08:21:04.705Z,2.10
2022-10-25T08:23:32.725Z,3.22
2022-10-25T08:26:01.405Z,1.83
2022-10-25T08:28:31.297Z,2.10
2022-10-25T08:31:01.036Z,2.15
2022-10-25T08:33:29.198Z,1.88
2022-10-25T08:35:59.538Z,1.38
2022-10-25T08:38:26.878Z,1.67
2022-10-25T08:41:16.085Z,1.15
2022-10-25T08:46:34.280Z,1.10
2022-10-25T08:49:26.691Z,1.10
2022-10-25T08:51:56.349Z,1.20
2022-10-25T08:54:35.117Z,1.42
2022-10-25T08:57:16.036Z,1.85
2022-10-25T08:59:47.985Z,2.95
2022-10-25T09:02:36.532Z,5.85
2022-10-25T09:05:09.525Z,1.30
2022-10-25T09:08:03.330Z,1.13
2022-10-25T09:13:18.060Z,0.95
2022-10-25T09:15:50.939Z,1.35
2022-10-25T09:18:19.398Z,0.98
2022-10-25T09:20:51.427Z,1.05
2022-10-25T09:23:32.595Z,1.00
2022-10-25T09:26:04.658Z,0.98
2022-10-25T09:28:52.564Z,1.27
2022-10-25T09:31:23.782Z,0.77
2022-10-25T09:34:03.151Z,0.90
2022-10-25T09:36:40.784Z,0.80
2022-10-25T09:39:20.325Z,0.65
2022-10-25T09:41:51.388Z,0.75
2022-10-25T09:44:40.448Z,0.60
2022-10-25T09:47:29.911Z,0.40
2022-10-25T09:50:07.127Z,0.75
2022-10-25T09:52:51.171Z,0.63
2022-10-25T09:55:47.410Z,0.90
2022-10-25T09:58:41.876Z,0.38
2022-10-25T10:01:17.037Z,0.60
2022-10-25T10:03:47.090Z,0.70
2022-10-25T10:06:25.608Z,1.13
2022-10-25T10:09:07.027Z,0.70
2022-10-25T10:11:35.908Z,0.60
2022-10-25T10:14:25.647Z,0.82
2022-10-25T10:16:56.718Z,0.65
2022-10-25T10:19:30.084Z,0.70
2022-10-25T10:22:00.802Z,0.65
2022-10-25T10:24:34.823Z,0.60
2022-10-25T10:27:08.545Z,0.93
2022-10-25T10:29:57.369Z,0.70
2022-10-25T10:32:29.478Z,0.70
2022-10-25T10:34:58.333Z,0.30
2022-10-25T10:37:27.485Z,0.65
2022-10-25T10:39:57.645Z,0.82
2022-10-25T10:42:35.251Z,0.55
2022-10-25T10:45:08.552Z,0.60
2022-10-25T10:47:46.138Z,0.55
2022-10-25T10:50:25.776Z,0.80
2022-10-25T10:53:00.151Z,0.60
2022-10-25T10:55:32.491Z,0.52
2022-10-25T10:58:25.210Z,0.50
2022-10-25T11:01:06.612Z,0.75
2022-10-25T11:03:49.119Z,0.88
2022-10-25T11:06:35.198Z,0.67
2022-10-25T11:09:21.825Z,0.50
2022-10-25T11:12:12.294Z,0.85
2022-10-25T11:14:39.686Z,0.70
2022-10-25T11:17:17.838Z,0.60
2022-10-25T11:19:53.665Z,0.70
2022-10-25T11:22:39.107Z,2.08
2022-10-25T11:25:12.361Z,0.70
2022-10-25T11:28:01.141Z,0.75
2022-10-25T11:30:38.634Z,1.08
2022-10-25T11:33:45.126Z,0.70
2022-10-25T11:36:22.146Z,0.90
2022-10-25T11:39:01.205Z,1.17
2022-10-25T11:41:53.466Z,0.80
2022-10-25T11:44:27.036Z,0.70
2022-10-25T11:47:43.042Z,0.80
2022-10-25T11:50:10.709Z,1.08
2022-10-25T11:53:00.021Z,1.10
2022-10-25T11:55:40.358Z,1.00
2022-10-25T11:58:30.014Z,0.88
2022-10-25T12:01:23.623Z,0.60
2022-10-25T12:03:59.686Z,1.20
2022-10-25T12:06:52.105Z,3.47
2022-10-25T12:09:37.919Z,1.23
2022-10-25T12:12:10.908Z,1.30
2022-10-25T12:14:42.947Z,1.20
2022-10-25T12:17:27.793Z,0.80
2022-10-25T12:19:58.310Z,2.17
2022-10-25T12:22:30.853Z,1.35
2022-10-25T12:25:18.221Z,1.80
2022-10-25T12:27:51.037Z,1.00
2022-10-25T12:30:20.536Z,1.08
2022-10-25T12:33:04.335Z,1.08
2022-10-25T12:35:40.412Z,1.10
2022-10-25T12:38:15.536Z,1.83
2022-10-25T12:40:47.631Z,1.08
2022-10-25T12:43:31.368Z,1.50
2022-10-25T12:46:10.786Z,1.45
2022-10-25T12:48:50.048Z,1.10
2022-10-25T12:51:34.615Z,1.38
2022-10-25T12:54:04.940Z,2.00
2022-10-25T12:57:03.615Z,1.67
2022-10-25T12:59:41.834Z,1.42
2022-10-25T13:02:21.106Z,1.38
2022-10-25T13:05:06.708Z,1.65
2022-10-25T13:07:35.838Z,1.40
2022-10-25T13:10:15.505Z,1.35
2022-10-25T13:12:57.682Z,1.33
2022-10-25T13:15:25.019Z,1.20
2022-10-25T13:18:07.178Z,1.65
2022-10-25T13:20:34.423Z,1.60
2022-10-25T13:23:21.706Z,1.23
2022-10-25T13:25:48.964Z,2.17
2022-10-25T13:28:16.229Z,1.73
2022-10-25T13:30:44.423Z,2.03
2022-10-25T13:33:24.466Z,1.48
2022-10-25T13:35:51.693Z,1.63
2022-10-25T13:38:25.315Z,1.92
2022-10-25T13:41:15.443Z,1.75
2022-10-25T13:44:02.404Z,2.20
2022-10-25T13:46:34.021Z,1.65
2022-10-25T13:49:04.425Z,1.88
2022-10-25T13:51:32.992Z,2.40
2022-10-25T13:54:06.098Z,2.38
2022-10-25T13:56:37.096Z,3.03
2022-10-25T13:59:24.438Z,2.15
2022-10-25T14:01:53.382Z,2.10
2022-10-25T14:04:32.500Z,2.45
2022-10-25T14:07:37.416Z,2.33
2022-10-25T14:10:06.666Z,3.05
2022-10-25T14:12:35.800Z,2.88
2022-10-25T14:15:39.713Z,2.65
2022-10-25T14:20:45.935Z,3.15
2022-10-25T14:23:25.672Z,3.00
2022-10-25T14:25:58.745Z,3.10
2022-10-25T14:28:32.017Z,2.53
2022-10-25T14:31:05.165Z,3.22
2022-10-25T14:36:05.146Z,2.80
2022-10-25T14:39:00.251Z,2.63
2022-10-25T14:41:34.845Z,3.22
2022-10-25T14:44:02.621Z,2.78
2022-10-25T14:46:30.562Z,3.05
2022-10-25T14:48:59.613Z,2.30
2022-10-25T14:51:35.120Z,2.80
2022-10-25T14:54:20.045Z,2.75
2022-10-25T14:56:54.786Z,2.95
2022-10-25T14:59:32.916Z,2.47
2022-10-25T15:02:06.021Z,2.97
2022-10-25T15:07:03.152Z,2.60
2022-10-25T15:09:46.912Z,2.67
2022-10-25T15:12:16.034Z,2.95
2022-10-25T15:14:43.593Z,2.55
2022-10-25T15:17:23.761Z,2.30
2022-10-25T15:20:17.169Z,2.25
2022-10-25T15:22:48.121Z,2.75
2022-10-25T15:25:24.446Z,2.53
2022-10-25T15:27:54.791Z,2.80
2022-10-25T15:30:43.804Z,2.42
2022-10-25T15:33:18.363Z,1.92
2022-10-25T15:36:03.439Z,1.90
2022-10-25T15:39:06.164Z,2.25
2022-10-25T15:41:23.670Z,2.63
2022-10-25T15:43:52.155Z,2.30
2022-10-25T15:46:34.072Z,2.05
2022-10-25T15:49:09.227Z,2.58
2022-10-25T15:51:40.559Z,2.00
2022-10-25T15:54:21.657Z,2.40
2022-10-25T15:56:50.104Z,2.70
2022-10-25T15:59:17.762Z,2.38
2022-10-25T16:01:48.556Z,2.15
2022-10-25T16:04:18.427Z,3.10
2022-10-25T16:06:46.645Z,2.50
2022-10-25T16:09:13.945Z,2.45
2022-10-25T16:11:46.941Z,1.77
2022-10-25T16:14:26.436Z,2.88
2022-10-25T16:16:53.999Z,2.03
2022-10-25T16:19:26.318Z,2.35
2022-10-25T16:21:53.836Z,2.30
2022-10-25T16:24:21.272Z,2.10
2022-10-25T16:26:50.078Z,5.30
2022-10-25T16:29:22.781Z,8.15
2022-10-25T16:31:50.768Z,4.68
2022-10-25T16:34:19.553Z,2.25
2022-10-25T16:36:48.700Z,1.85
2022-10-25T16:39:16.420Z,1.92
2022-10-25T16:41:45.661Z,2.03
2022-10-25T16:44:15.695Z,2.72
2022-10-25T16:46:42.977Z,1.92
2022-10-25T16:49:10.971Z,2.00
2022-10-25T16:51:40.133Z,1.58
2022-10-25T16:54:08.177Z,2.92
2022-10-25T16:56:35.769Z,3.22
2022-10-25T16:59:03.578Z,5.30
2022-10-25T17:01:41.260Z,2.72
2022-10-25T17:04:11.431Z,2.97
2022-10-25T17:06:42.686Z,2.13
2022-10-25T17:09:11.369Z,1.85
2022-10-25T17:11:38.772Z,2.20
2022-10-25T17:14:06.517Z,1.73
2022-10-25T17:16:33.967Z,2.00
2022-10-25T17:19:03.252Z,2.08
2022-10-25T17:21:33.206Z,2.00
2022-10-25T17:24:00.644Z,2.28
2022-10-25T17:26:28.176Z,2.05
2022-10-25T17:28:57.014Z,1.77
2022-10-25T17:31:24.709Z,2.03
2022-10-25T17:33:51.957Z,2.47
2022-10-25T17:36:19.403Z,2.97
2022-10-25T17:38:46.868Z,3.05
2022-10-25T17:41:14.924Z,2.50
2022-10-25T17:43:42.646Z,2.20
2022-10-25T17:46:24.541Z,2.72
2022-10-25T17:49:01.895Z,2.53
2022-10-25T17:51:30.596Z,2.38
2022-10-25T17:53:58.022Z,2.88
2022-10-25T17:56:26.950Z,2.95
2022-10-25T17:58:55.465Z,2.67
2022-10-25T18:01:26.032Z,2.38
2022-10-25T18:03:54.811Z,2.72
2022-10-25T18:06:23.826Z,2.42
2022-10-25T18:08:56.165Z,3.08
2022-10-25T18:11:25.978Z,2.20
2022-10-25T18:13:56.338Z,3.13
2022-10-25T18:16:27.559Z,2.85
2022-10-25T18:19:02.976Z,2.75
2022-10-25T18:21:31.836Z,2.85
2022-10-25T18:24:04.991Z,6.78
2022-10-25T18:26:34.055Z,3.53
2022-10-25T18:29:01.420Z,3.30
2022-10-25T18:31:28.894Z,3.65
2022-10-25T18:33:58.752Z,3.80
2022-10-25T18:36:27.568Z,3.78
2022-10-25T18:38:55.401Z,3.55
2022-10-25T18:41:28.438Z,3.53
2022-10-25T18:43:56.380Z,3.97
2022-10-25T18:46:25.291Z,3.92
2022-10-25T18:48:53.734Z,3.90
2022-10-25T18:51:23.069Z,3.50
2022-10-25T18:53:54.844Z,4.13
2022-10-25T18:56:22.679Z,3.75
2022-10-25T18:58:50.597Z,5.45
2022-10-25T19:01:22.224Z,7.97
2022-10-25T19:03:49.919Z,10.27
2022-10-25T19:06:18.266Z,11.65
2022-10-25T19:08:45.654Z,6.90
2022-10-25T19:11:13.899Z,4.32
2022-10-25T19:13:41.482Z,5.70
2022-10-25T19:16:09.980Z,6.65
2022-10-25T19:18:37.780Z,6.90
2022-10-25T19:21:07.922Z,3.47
2022-10-25T19:23:35.869Z,3.92
2022-10-25T19:26:04.988Z,3.42
2022-10-25T19:28:33.152Z,4.40
2022-10-25T19:31:08.664Z,3.97
2022-10-25T19:33:36.468Z,3.97
2022-10-25T19:36:06.260Z,3.53
2022-10-25T19:38:35.238Z,4.30
2022-10-25T19:41:05.173Z,4.07
2022-10-25T19:43:33.109Z,3.90
2022-10-25T19:46:02.620Z,4.18
2022-10-25T19:48:30.412Z,5.45
2022-10-25T19:51:07.961Z,4.38
2022-10-25T19:53:35.441Z,4.72
2022-10-25T19:56:12.616Z,5.03
2022-10-25T19:58:40.724Z,6.03
2022-10-25T20:01:11.825Z,6.28
2022-10-25T20:03:40.153Z,4.45
2022-10-25T20:06:17.530Z,4.18
2022-10-25T20:08:47.739Z,3.83
2022-10-25T20:11:16.821Z,4.25
2022-10-25T20:13:44.907Z,4.35
2022-10-25T20:16:13.814Z,4.45
2022-10-25T20:18:42.328Z,5.13
2022-10-25T20:21:18.872Z,6.25
2022-10-25T20:23:50.921Z,4.60
2022-10-25T20:26:35.827Z,4.28
2022-10-25T20:29:06.031Z,4.93
2022-10-25T20:31:34.540Z,4.47
2022-10-25T20:34:02.653Z,4.80
2022-10-25T20:36:30.382Z,5.28
2022-10-25T20:38:57.737Z,4.90
2022-10-25T20:41:27.243Z,4.60
2022-10-25T20:43:56.964Z,4.47
2022-10-25T20:46:26.085Z,4.78
2022-10-25T20:48:53.940Z,4.63
2022-10-25T20:51:21.551Z,4.82
2022-10-25T20:53:49.681Z,4.85
2022-10-25T20:56:18.828Z,5.20
2022-10-25T20:58:46.398Z,4.32
2022-10-25T21:01:14.062Z,5.22
2022-10-25T21:03:41.995Z,4.75
2022-10-25T21:06:14.350Z,5.30
2022-10-25T21:08:41.769Z,4.27
2022-10-25T21:11:12.326Z,4.40
2022-10-25T21:13:39.704Z,4.78
2022-10-25T21:16:08.707Z,4.85
2022-10-25T21:18:37.267Z,5.28
2022-10-25T21:21:10.765Z,6.57
2022-10-25T21:23:38.139Z,5.13
2022-10-25T21:26:07.504Z,4.80
2022-10-25T21:28:40.223Z,5.85
2022-10-25T21:31:15.967Z,4.72
2022-10-25T21:33:51.297Z,4.95
2022-10-25T21:36:20.223Z,6.18
2022-10-25T21:38:47.902Z,5.13
2022-10-25T21:41:20.978Z,5.13
2022-10-25T21:46:17.935Z,5.57
2022-10-25T21:48:47.912Z,6.57
2022-10-25T21:51:15.481Z,5.68
2022-10-25T21:53:43.221Z,5.30
2022-10-25T21:56:13.181Z,5.47
2022-10-25T21:58:42.170Z,6.18
2022-10-25T22:01:11.107Z,5.50
2022-10-25T22:03:39.709Z,5.25
2022-10-25T22:06:10.972Z,6.57
2022-10-25T22:08:39.035Z,5.63
2022-10-25T22:11:13.731Z,5.72
2022-10-25T22:13:41.916Z,4.45
2022-10-25T22:16:12.624Z,5.22
2022-10-25T22:18:40.164Z,4.88
2022-10-25T22:21:12.384Z,4.93
2022-10-25T22:23:40.016Z,5.53
2022-10-25T22:26:09.880Z,5.05
2022-10-25T22:28:40.686Z,4.93
2022-10-25T22:31:15.171Z,5.93
2022-10-25T22:33:43.797Z,5.28
2022-10-25T22:36:19.146Z,6.13
2022-10-25T22:38:47.227Z,5.22
2022-10-25T22:41:16.905Z,4.78
2022-10-25T22:43:45.040Z,5.55
2022-10-25T22:46:34.162Z,4.68
2022-10-25T22:49:06.606Z,5.07
2022-10-25T22:51:34.103Z,4.83
2022-10-25T22:54:01.502Z,5.63
2022-10-25T22:56:30.924Z,4.75
2022-10-25T22:59:00.619Z,4.82
2022-10-25T23:01:30.303Z,5.45
2022-10-25T23:03:58.992Z,4.80
2022-10-25T23:06:36.137Z,5.43
2022-10-25T23:09:07.027Z,5.32
2022-10-25T23:11:36.356Z,4.55
2022-10-25T23:14:05.146Z,5.97
2022-10-25T23:16:32.506Z,4.68
2022-10-25T23:18:59.969Z,5.75
2022-10-25T23:21:30.187Z,5.03
2022-10-25T23:23:59.705Z,4.65
2022-10-25T23:26:32.877Z,5.05
2022-10-25T23:29:01.139Z,5.03
2022-10-25T23:31:29.793Z,4.90
2022-10-25T23:33:59.269Z,5.32
2022-10-25T23:36:29.530Z,5.22
2022-10-25T23:38:57.954Z,5.47
2022-10-25T23:41:25.375Z,5.07
2022-10-25T23:43:52.730Z,5.25
2022-10-25T23:46:20.164Z,4.88
2022-10-25T23:48:47.676Z,4.38
2022-10-25T23:51:17.107Z,5.85
2022-10-25T23:53:45.559Z,5.35
2022-10-25T23:56:14.284Z,5.25
2022-10-25T23:58:41.926Z,5.03
